sensor_id;sensor_type;location;lat;lon;timestamp;temperature;humidity
23231;DHT22;11784;49.818;8.632;2022-09-09T00:01:08;21.10;72.70
23231;DHT22;11784;49.818;8.632;2022-09-09T00:09:47;21.10;74.10
23231;DHT22;11784;49.818;8.632;2022-09-09T00:12:36;21.10;73.30
23231;DHT22;11784;49.818;8.632;2022-09-09T00:15:12;21.00;74.80
23231;DHT22;11784;49.818;8.632;2022-09-09T00:17:58;21.00;73.60
23231;DHT22;11784;49.818;8.632;2022-09-09T00:20:53;21.00;74.00
23231;DHT22;11784;49.818;8.632;2022-09-09T00:23:34;21.00;74.00
23231;DHT22;11784;49.818;8.632;2022-09-09T00:26:31;21.00;74.10
23231;DHT22;11784;49.818;8.632;2022-09-09T00:31:54;21.00;73.80
23231;DHT22;11784;49.818;8.632;2022-09-09T00:34:24;21.10;73.40
23231;DHT22;11784;49.818;8.632;2022-09-09T00:36:53;21.10;73.30
23231;DHT22;11784;49.818;8.632;2022-09-09T00:39:42;21.10;73.30
23231;DHT22;11784;49.818;8.632;2022-09-09T00:44:59;21.10;73.00
23231;DHT22;11784;49.818;8.632;2022-09-09T00:47:46;21.10;73.50
23231;DHT22;11784;49.818;8.632;2022-09-09T00:53:22;21.10;73.10
23231;DHT22;11784;49.818;8.632;2022-09-09T00:56:14;21.10;73.80
23231;DHT22;11784;49.818;8.632;2022-09-09T00:58:43;21.10;72.60
23231;DHT22;11784;49.818;8.632;2022-09-09T01:01:16;21.20;72.50
23231;DHT22;11784;49.818;8.632;2022-09-09T01:03:52;21.20;72.00
23231;DHT22;11784;49.818;8.632;2022-09-09T01:06:32;21.20;72.90
23231;DHT22;11784;49.818;8.632;2022-09-09T01:14:54;21.20;72.80
23231;DHT22;11784;49.818;8.632;2022-09-09T01:17:28;21.20;72.80
23231;DHT22;11784;49.818;8.632;2022-09-09T01:20:15;21.20;72.90
23231;DHT22;11784;49.818;8.632;2022-09-09T01:23:02;21.20;73.30
23231;DHT22;11784;49.818;8.632;2022-09-09T01:28:31;21.20;72.20
23231;DHT22;11784;49.818;8.632;2022-09-09T01:30:58;21.20;72.60
23231;DHT22;11784;49.818;8.632;2022-09-09T01:33:24;21.20;72.70
23231;DHT22;11784;49.818;8.632;2022-09-09T01:36:00;21.10;72.70
23231;DHT22;11784;49.818;8.632;2022-09-09T01:38:29;21.10;72.80
23231;DHT22;11784;49.818;8.632;2022-09-09T01:40:56;21.10;73.20
23231;DHT22;11784;49.818;8.632;2022-09-09T01:43:25;21.10;73.50
23231;DHT22;11784;49.818;8.632;2022-09-09T01:45:53;21.10;73.10
23231;DHT22;11784;49.818;8.632;2022-09-09T01:48:21;21.10;73.40
23231;DHT22;11784;49.818;8.632;2022-09-09T01:50:47;21.10;73.50
23231;DHT22;11784;49.818;8.632;2022-09-09T01:53:15;21.00;73.30
23231;DHT22;11784;49.818;8.632;2022-09-09T01:55:49;21.00;73.50
23231;DHT22;11784;49.818;8.632;2022-09-09T01:58:38;21.00;74.10
23231;DHT22;11784;49.818;8.632;2022-09-09T02:03:49;21.00;74.10
23231;DHT22;11784;49.818;8.632;2022-09-09T02:06:36;20.90;73.80
23231;DHT22;11784;49.818;8.632;2022-09-09T02:09:05;20.90;74.50
23231;DHT22;11784;49.818;8.632;2022-09-09T02:11:32;20.90;74.60
23231;DHT22;11784;49.818;8.632;2022-09-09T02:14:06;20.90;74.30
23231;DHT22;11784;49.818;8.632;2022-09-09T02:16:54;20.90;74.60
23231;DHT22;11784;49.818;8.632;2022-09-09T02:19:28;20.80;74.50
23231;DHT22;11784;49.818;8.632;2022-09-09T02:21:57;20.80;75.10
23231;DHT22;11784;49.818;8.632;2022-09-09T02:24:26;20.80;74.70
23231;DHT22;11784;49.818;8.632;2022-09-09T02:26:54;20.90;74.70
23231;DHT22;11784;49.818;8.632;2022-09-09T02:29:39;20.80;74.80
23231;DHT22;11784;49.818;8.632;2022-09-09T02:32:09;20.80;75.20
23231;DHT22;11784;49.818;8.632;2022-09-09T02:34:40;20.80;75.20
23231;DHT22;11784;49.818;8.632;2022-09-09T02:37:09;20.70;75.20
23231;DHT22;11784;49.818;8.632;2022-09-09T02:39:35;20.80;75.70
23231;DHT22;11784;49.818;8.632;2022-09-09T02:42:01;20.70;75.80
23231;DHT22;11784;49.818;8.632;2022-09-09T02:44:29;20.80;75.50
23231;DHT22;11784;49.818;8.632;2022-09-09T02:47:23;20.80;75.20
23231;DHT22;11784;49.818;8.632;2022-09-09T02:50:02;20.80;75.60
23231;DHT22;11784;49.818;8.632;2022-09-09T02:58:03;20.80;76.20
23231;DHT22;11784;49.818;8.632;2022-09-09T03:00:31;20.80;75.80
23231;DHT22;11784;49.818;8.632;2022-09-09T03:02:57;20.80;75.90
23231;DHT22;11784;49.818;8.632;2022-09-09T03:05:23;20.80;76.10
23231;DHT22;11784;49.818;8.632;2022-09-09T03:07:49;20.80;76.00
23231;DHT22;11784;49.818;8.632;2022-09-09T03:10:16;20.80;75.80
23231;DHT22;11784;49.818;8.632;2022-09-09T03:12:42;20.80;76.10
23231;DHT22;11784;49.818;8.632;2022-09-09T03:15:08;20.80;76.20
23231;DHT22;11784;49.818;8.632;2022-09-09T03:17:35;20.80;76.10
23231;DHT22;11784;49.818;8.632;2022-09-09T03:20:02;20.80;76.00
23231;DHT22;11784;49.818;8.632;2022-09-09T03:22:28;20.70;75.70
23231;DHT22;11784;49.818;8.632;2022-09-09T03:24:53;20.70;75.90
23231;DHT22;11784;49.818;8.632;2022-09-09T03:27:19;20.70;75.70
23231;DHT22;11784;49.818;8.632;2022-09-09T03:29:45;20.70;76.00
23231;DHT22;11784;49.818;8.632;2022-09-09T03:32:11;20.70;75.90
23231;DHT22;11784;49.818;8.632;2022-09-09T03:34:38;20.70;75.80
23231;DHT22;11784;49.818;8.632;2022-09-09T03:37:07;20.70;76.00
23231;DHT22;11784;49.818;8.632;2022-09-09T03:39:32;20.60;76.30
23231;DHT22;11784;49.818;8.632;2022-09-09T03:41:58;20.60;76.40
23231;DHT22;11784;49.818;8.632;2022-09-09T03:44:23;20.60;76.70
23231;DHT22;11784;49.818;8.632;2022-09-09T03:46:49;20.60;76.90
23231;DHT22;11784;49.818;8.632;2022-09-09T03:49:14;20.60;77.00
23231;DHT22;11784;49.818;8.632;2022-09-09T03:51:40;20.60;76.80
23231;DHT22;11784;49.818;8.632;2022-09-09T03:54:06;20.60;76.90
23231;DHT22;11784;49.818;8.632;2022-09-09T03:56:34;20.60;77.10
23231;DHT22;11784;49.818;8.632;2022-09-09T03:59:00;20.50;77.20
23231;DHT22;11784;49.818;8.632;2022-09-09T04:01:26;20.50;77.20
23231;DHT22;11784;49.818;8.632;2022-09-09T04:03:52;20.50;77.70
23231;DHT22;11784;49.818;8.632;2022-09-09T04:06:18;20.50;77.80
23231;DHT22;11784;49.818;8.632;2022-09-09T04:08:45;20.50;77.90
23231;DHT22;11784;49.818;8.632;2022-09-09T04:11:14;20.50;77.50
23231;DHT22;11784;49.818;8.632;2022-09-09T04:13:41;20.50;77.90
23231;DHT22;11784;49.818;8.632;2022-09-09T04:16:09;20.50;77.80
23231;DHT22;11784;49.818;8.632;2022-09-09T04:18:35;20.50;77.80
23231;DHT22;11784;49.818;8.632;2022-09-09T04:21:01;20.50;77.80
23231;DHT22;11784;49.818;8.632;2022-09-09T04:23:27;20.50;77.70
23231;DHT22;11784;49.818;8.632;2022-09-09T04:25:58;20.50;77.80
23231;DHT22;11784;49.818;8.632;2022-09-09T04:28:26;20.50;77.50
23231;DHT22;11784;49.818;8.632;2022-09-09T04:30:51;20.50;77.40
23231;DHT22;11784;49.818;8.632;2022-09-09T04:33:18;20.50;77.30
23231;DHT22;11784;49.818;8.632;2022-09-09T04:35:45;20.50;77.10
23231;DHT22;11784;49.818;8.632;2022-09-09T04:38:11;20.40;77.30
23231;DHT22;11784;49.818;8.632;2022-09-09T04:40:36;20.40;77.20
23231;DHT22;11784;49.818;8.632;2022-09-09T04:43:02;20.40;77.40
23231;DHT22;11784;49.818;8.632;2022-09-09T04:45:30;20.40;77.40
23231;DHT22;11784;49.818;8.632;2022-09-09T04:47:56;20.40;77.60
23231;DHT22;11784;49.818;8.632;2022-09-09T04:50:22;20.30;77.40
23231;DHT22;11784;49.818;8.632;2022-09-09T04:52:48;20.30;77.40
23231;DHT22;11784;49.818;8.632;2022-09-09T04:55:13;20.30;78.10
23231;DHT22;11784;49.818;8.632;2022-09-09T04:57:39;20.30;77.30
23231;DHT22;11784;49.818;8.632;2022-09-09T05:00:06;20.20;77.50
23231;DHT22;11784;49.818;8.632;2022-09-09T05:02:33;20.20;77.50
23231;DHT22;11784;49.818;8.632;2022-09-09T05:05:02;20.20;77.70
23231;DHT22;11784;49.818;8.632;2022-09-09T05:07:27;20.10;77.70
23231;DHT22;11784;49.818;8.632;2022-09-09T05:09:54;20.10;77.80
23231;DHT22;11784;49.818;8.632;2022-09-09T05:12:19;20.00;78.20
23231;DHT22;11784;49.818;8.632;2022-09-09T05:14:45;20.00;78.30
23231;DHT22;11784;49.818;8.632;2022-09-09T05:17:10;20.00;78.20
23231;DHT22;11784;49.818;8.632;2022-09-09T05:19:36;20.00;78.30
23231;DHT22;11784;49.818;8.632;2022-09-09T05:22:02;20.00;78.50
23231;DHT22;11784;49.818;8.632;2022-09-09T05:24:28;20.00;78.70
23231;DHT22;11784;49.818;8.632;2022-09-09T05:26:54;20.00;78.80
23231;DHT22;11784;49.818;8.632;2022-09-09T05:29:21;20.10;79.00
23231;DHT22;11784;49.818;8.632;2022-09-09T05:31:46;20.00;78.30
23231;DHT22;11784;49.818;8.632;2022-09-09T05:34:12;20.00;78.60
23231;DHT22;11784;49.818;8.632;2022-09-09T05:36:38;20.10;78.60
23231;DHT22;11784;49.818;8.632;2022-09-09T05:39:03;20.00;78.60
23231;DHT22;11784;49.818;8.632;2022-09-09T05:41:29;20.00;78.50
23231;DHT22;11784;49.818;8.632;2022-09-09T05:43:55;20.10;79.10
23231;DHT22;11784;49.818;8.632;2022-09-09T05:46:23;20.10;79.10
23231;DHT22;11784;49.818;8.632;2022-09-09T05:48:50;20.00;78.60
23231;DHT22;11784;49.818;8.632;2022-09-09T05:51:22;20.00;79.40
23231;DHT22;11784;49.818;8.632;2022-09-09T05:53:48;20.00;79.80
23231;DHT22;11784;49.818;8.632;2022-09-09T05:56:19;20.00;79.70
23231;DHT22;11784;49.818;8.632;2022-09-09T05:58:46;19.90;79.40
23231;DHT22;11784;49.818;8.632;2022-09-09T06:01:23;20.00;79.70
23231;DHT22;11784;49.818;8.632;2022-09-09T06:03:50;20.00;80.00
23231;DHT22;11784;49.818;8.632;2022-09-09T06:06:19;20.10;80.70
23231;DHT22;11784;49.818;8.632;2022-09-09T06:08:49;20.10;79.70
23231;DHT22;11784;49.818;8.632;2022-09-09T06:11:21;20.10;79.40
23231;DHT22;11784;49.818;8.632;2022-09-09T06:13:47;20.20;79.70
23231;DHT22;11784;49.818;8.632;2022-09-09T06:16:16;20.20;79.50
23231;DHT22;11784;49.818;8.632;2022-09-09T06:18:42;20.30;79.20
23231;DHT22;11784;49.818;8.632;2022-09-09T06:21:19;20.30;79.30
23231;DHT22;11784;49.818;8.632;2022-09-09T06:23:45;20.30;78.50
23231;DHT22;11784;49.818;8.632;2022-09-09T06:28:37;20.30;78.50
23231;DHT22;11784;49.818;8.632;2022-09-09T06:31:05;20.40;78.60
23231;DHT22;11784;49.818;8.632;2022-09-09T06:33:51;20.40;78.20
23231;DHT22;11784;49.818;8.632;2022-09-09T06:36:17;20.40;78.30
23231;DHT22;11784;49.818;8.632;2022-09-09T06:38:44;20.50;78.60
23231;DHT22;11784;49.818;8.632;2022-09-09T06:41:11;20.50;78.30
23231;DHT22;11784;49.818;8.632;2022-09-09T06:43:37;20.50;78.20
23231;DHT22;11784;49.818;8.632;2022-09-09T06:46:11;20.60;78.50
23231;DHT22;11784;49.818;8.632;2022-09-09T06:48:39;20.60;78.00
23231;DHT22;11784;49.818;8.632;2022-09-09T06:51:09;20.60;78.10
23231;DHT22;11784;49.818;8.632;2022-09-09T06:53:35;20.70;78.20
23231;DHT22;11784;49.818;8.632;2022-09-09T06:56:25;20.70;78.20
23231;DHT22;11784;49.818;8.632;2022-09-09T06:58:52;20.80;78.20
23231;DHT22;11784;49.818;8.632;2022-09-09T07:01:24;20.80;77.80
23231;DHT22;11784;49.818;8.632;2022-09-09T07:03:53;20.80;77.10
23231;DHT22;11784;49.818;8.632;2022-09-09T07:06:28;20.80;77.60
23231;DHT22;11784;49.818;8.632;2022-09-09T07:08:59;20.80;77.70
23231;DHT22;11784;49.818;8.632;2022-09-09T07:11:29;20.80;77.90
23231;DHT22;11784;49.818;8.632;2022-09-09T07:13:57;20.90;78.00
23231;DHT22;11784;49.818;8.632;2022-09-09T07:16:23;20.90;77.30
23231;DHT22;11784;49.818;8.632;2022-09-09T07:18:50;20.90;77.50
23231;DHT22;11784;49.818;8.632;2022-09-09T07:21:16;20.90;78.00
23231;DHT22;11784;49.818;8.632;2022-09-09T07:23:43;20.90;77.90
23231;DHT22;11784;49.818;8.632;2022-09-09T07:26:17;20.90;77.90
23231;DHT22;11784;49.818;8.632;2022-09-09T07:28:44;20.90;78.40
23231;DHT22;11784;49.818;8.632;2022-09-09T07:31:17;20.90;77.90
23231;DHT22;11784;49.818;8.632;2022-09-09T07:33:44;20.90;77.70
23231;DHT22;11784;49.818;8.632;2022-09-09T07:36:23;20.90;77.40
23231;DHT22;11784;49.818;8.632;2022-09-09T07:39:01;20.90;78.00
23231;DHT22;11784;49.818;8.632;2022-09-09T07:41:29;20.90;77.70
23231;DHT22;11784;49.818;8.632;2022-09-09T07:43:56;20.90;78.30
23231;DHT22;11784;49.818;8.632;2022-09-09T07:46:25;21.00;78.40
23231;DHT22;11784;49.818;8.632;2022-09-09T07:48:53;21.00;77.60
23231;DHT22;11784;49.818;8.632;2022-09-09T07:51:28;21.00;77.60
23231;DHT22;11784;49.818;8.632;2022-09-09T07:53:55;21.00;77.60
23231;DHT22;11784;49.818;8.632;2022-09-09T07:56:23;21.10;77.60
23231;DHT22;11784;49.818;8.632;2022-09-09T07:58:50;21.10;77.70
23231;DHT22;11784;49.818;8.632;2022-09-09T08:01:17;21.10;77.70
23231;DHT22;11784;49.818;8.632;2022-09-09T08:03:44;21.10;78.00
23231;DHT22;11784;49.818;8.632;2022-09-09T08:06:11;21.20;77.70
23231;DHT22;11784;49.818;8.632;2022-09-09T08:08:38;21.20;77.70
23231;DHT22;11784;49.818;8.632;2022-09-09T08:11:07;21.30;77.40
23231;DHT22;11784;49.818;8.632;2022-09-09T08:13:34;21.30;77.00
23231;DHT22;11784;49.818;8.632;2022-09-09T08:16:21;21.40;77.40
23231;DHT22;11784;49.818;8.632;2022-09-09T08:18:47;21.40;76.00
23231;DHT22;11784;49.818;8.632;2022-09-09T08:21:17;21.40;76.00
23231;DHT22;11784;49.818;8.632;2022-09-09T08:23:44;21.40;76.20
23231;DHT22;11784;49.818;8.632;2022-09-09T08:26:16;21.50;75.50
23231;DHT22;11784;49.818;8.632;2022-09-09T08:28:42;21.50;75.40
23231;DHT22;11784;49.818;8.632;2022-09-09T08:33:38;21.50;74.40
23231;DHT22;11784;49.818;8.632;2022-09-09T08:36:05;21.50;74.10
23231;DHT22;11784;49.818;8.632;2022-09-09T08:38:31;21.50;74.00
23231;DHT22;11784;49.818;8.632;2022-09-09T08:41:24;21.50;74.70
23231;DHT22;11784;49.818;8.632;2022-09-09T08:44:09;21.60;73.80
23231;DHT22;11784;49.818;8.632;2022-09-09T08:46:44;21.60;73.50
23231;DHT22;11784;49.818;8.632;2022-09-09T08:51:56;21.60;73.50
23231;DHT22;11784;49.818;8.632;2022-09-09T08:54:23;21.60;74.20
23231;DHT22;11784;49.818;8.632;2022-09-09T08:56:49;21.60;74.00
23231;DHT22;11784;49.818;8.632;2022-09-09T08:59:17;21.70;74.20
23231;DHT22;11784;49.818;8.632;2022-09-09T09:09:54;22.10;72.20
23231;DHT22;11784;49.818;8.632;2022-09-09T09:12:28;22.10;71.80
23231;DHT22;11784;49.818;8.632;2022-09-09T09:14:55;22.20;70.20
23231;DHT22;11784;49.818;8.632;2022-09-09T09:17:25;22.20;70.30
23231;DHT22;11784;49.818;8.632;2022-09-09T09:19:52;22.20;71.00
23231;DHT22;11784;49.818;8.632;2022-09-09T09:22:36;22.30;71.40
23231;DHT22;11784;49.818;8.632;2022-09-09T09:25:23;22.30;71.10
23231;DHT22;11784;49.818;8.632;2022-09-09T09:28:13;22.30;70.10
23231;DHT22;11784;49.818;8.632;2022-09-09T09:30:47;22.30;70.90
23231;DHT22;11784;49.818;8.632;2022-09-09T09:33:35;22.30;70.40
23231;DHT22;11784;49.818;8.632;2022-09-09T09:36:05;22.40;70.10
23231;DHT22;11784;49.818;8.632;2022-09-09T09:38:34;22.40;70.30
23231;DHT22;11784;49.818;8.632;2022-09-09T09:41:01;22.40;71.30
23231;DHT22;11784;49.818;8.632;2022-09-09T09:43:35;22.40;71.90
23231;DHT22;11784;49.818;8.632;2022-09-09T09:46:03;22.30;71.40
23231;DHT22;11784;49.818;8.632;2022-09-09T09:48:29;22.40;71.60
23231;DHT22;11784;49.818;8.632;2022-09-09T09:51:01;22.40;71.30
23231;DHT22;11784;49.818;8.632;2022-09-09T09:53:32;22.40;70.60
23231;DHT22;11784;49.818;8.632;2022-09-09T09:56:07;22.40;69.90
23231;DHT22;11784;49.818;8.632;2022-09-09T10:01:27;22.50;70.30
23231;DHT22;11784;49.818;8.632;2022-09-09T10:04:16;22.60;70.10
23231;DHT22;11784;49.818;8.632;2022-09-09T10:06:44;22.50;68.00
23231;DHT22;11784;49.818;8.632;2022-09-09T10:09:29;22.60;68.60
23231;DHT22;11784;49.818;8.632;2022-09-09T10:18:03;22.80;68.20
23231;DHT22;11784;49.818;8.632;2022-09-09T10:23:50;22.90;67.20
23231;DHT22;11784;49.818;8.632;2022-09-09T10:34:34;22.80;67.10
23231;DHT22;11784;49.818;8.632;2022-09-09T10:37:11;22.70;67.70
23231;DHT22;11784;49.818;8.632;2022-09-09T10:39:42;22.60;69.00
23231;DHT22;11784;49.818;8.632;2022-09-09T10:42:12;22.60;69.90
23231;DHT22;11784;49.818;8.632;2022-09-09T10:47:45;22.50;71.20
23231;DHT22;11784;49.818;8.632;2022-09-09T10:55:52;22.30;71.30
23231;DHT22;11784;49.818;8.632;2022-09-09T10:58:27;22.20;75.80
23231;DHT22;11784;49.818;8.632;2022-09-09T11:00:58;22.20;74.20
23231;DHT22;11784;49.818;8.632;2022-09-09T11:03:28;22.00;76.10
23231;DHT22;11784;49.818;8.632;2022-09-09T11:06:04;22.00;77.70
23231;DHT22;11784;49.818;8.632;2022-09-09T11:08:32;21.90;78.50
23231;DHT22;11784;49.818;8.632;2022-09-09T11:13:37;21.70;80.20
23231;DHT22;11784;49.818;8.632;2022-09-09T11:18:46;21.70;77.90
23231;DHT22;11784;49.818;8.632;2022-09-09T11:21:23;21.70;80.90
23231;DHT22;11784;49.818;8.632;2022-09-09T11:23:55;21.70;79.20
23231;DHT22;11784;49.818;8.632;2022-09-09T11:26:55;21.90;79.10
23231;DHT22;11784;49.818;8.632;2022-09-09T11:29:43;22.00;77.40
23231;DHT22;11784;49.818;8.632;2022-09-09T11:37:50;22.10;72.20
23231;DHT22;11784;49.818;8.632;2022-09-09T11:40:23;22.20;73.80
23231;DHT22;11784;49.818;8.632;2022-09-09T11:43:01;22.20;73.10
23231;DHT22;11784;49.818;8.632;2022-09-09T11:45:30;22.40;72.20
23231;DHT22;11784;49.818;8.632;2022-09-09T11:47:58;22.50;73.60
23231;DHT22;11784;49.818;8.632;2022-09-09T11:52:49;22.80;67.00
23231;DHT22;11784;49.818;8.632;2022-09-09T12:00:34;22.80;66.30
23231;DHT22;11784;49.818;8.632;2022-09-09T12:03:00;22.80;66.10
23231;DHT22;11784;49.818;8.632;2022-09-09T12:05:39;22.80;67.30
23231;DHT22;11784;49.818;8.632;2022-09-09T12:08:06;22.80;68.50
23231;DHT22;11784;49.818;8.632;2022-09-09T12:10:39;22.70;67.10
23231;DHT22;11784;49.818;8.632;2022-09-09T12:15:48;22.70;67.70
23231;DHT22;11784;49.818;8.632;2022-09-09T12:26:34;22.80;65.50
23231;DHT22;11784;49.818;8.632;2022-09-09T12:29:23;22.80;65.70
23231;DHT22;11784;49.818;8.632;2022-09-09T12:31:58;22.80;64.20
23231;DHT22;11784;49.818;8.632;2022-09-09T12:34:44;22.80;65.50
23231;DHT22;11784;49.818;8.632;2022-09-09T12:40:31;22.70;65.10
23231;DHT22;11784;49.818;8.632;2022-09-09T12:43:00;22.70;62.80
23231;DHT22;11784;49.818;8.632;2022-09-09T12:45:29;22.70;63.70
23231;DHT22;11784;49.818;8.632;2022-09-09T12:48:08;22.70;63.50
23231;DHT22;11784;49.818;8.632;2022-09-09T12:50:42;22.60;62.10
23231;DHT22;11784;49.818;8.632;2022-09-09T12:53:29;22.60;62.60
23231;DHT22;11784;49.818;8.632;2022-09-09T12:56:02;22.60;63.80
23231;DHT22;11784;49.818;8.632;2022-09-09T12:58:29;22.50;64.30
23231;DHT22;11784;49.818;8.632;2022-09-09T13:01:01;22.50;63.50
23231;DHT22;11784;49.818;8.632;2022-09-09T13:03:30;22.50;63.80
23231;DHT22;11784;49.818;8.632;2022-09-09T13:06:12;22.50;62.70
23231;DHT22;11784;49.818;8.632;2022-09-09T13:08:38;22.40;62.90
23231;DHT22;11784;49.818;8.632;2022-09-09T13:11:09;22.40;62.60
23231;DHT22;11784;49.818;8.632;2022-09-09T13:13:37;22.30;61.40
23231;DHT22;11784;49.818;8.632;2022-09-09T13:16:05;22.30;61.40
23231;DHT22;11784;49.818;8.632;2022-09-09T13:18:35;22.30;61.50
23231;DHT22;11784;49.818;8.632;2022-09-09T13:21:01;22.30;61.30
23231;DHT22;11784;49.818;8.632;2022-09-09T13:23:31;22.30;60.90
23231;DHT22;11784;49.818;8.632;2022-09-09T13:25:58;22.30;61.60
23231;DHT22;11784;49.818;8.632;2022-09-09T13:28:26;22.30;62.30
23231;DHT22;11784;49.818;8.632;2022-09-09T13:31:22;22.10;61.40
23231;DHT22;11784;49.818;8.632;2022-09-09T13:33:49;22.10;62.60
23231;DHT22;11784;49.818;8.632;2022-09-09T13:36:14;22.00;62.70
23231;DHT22;11784;49.818;8.632;2022-09-09T13:39:04;22.00;63.30
23231;DHT22;11784;49.818;8.632;2022-09-09T13:41:43;21.90;64.60
23231;DHT22;11784;49.818;8.632;2022-09-09T13:44:42;21.80;64.60
23231;DHT22;11784;49.818;8.632;2022-09-09T13:47:21;21.70;65.60
23231;DHT22;11784;49.818;8.632;2022-09-09T13:49:48;21.60;67.00
23231;DHT22;11784;49.818;8.632;2022-09-09T13:52:16;21.60;68.00
23231;DHT22;11784;49.818;8.632;2022-09-09T13:54:42;21.60;69.30
23231;DHT22;11784;49.818;8.632;2022-09-09T13:57:16;21.60;70.60
23231;DHT22;11784;49.818;8.632;2022-09-09T13:59:44;21.60;71.30
23231;DHT22;11784;49.818;8.632;2022-09-09T14:02:09;21.60;72.60
23231;DHT22;11784;49.818;8.632;2022-09-09T14:04:35;21.70;73.10
23231;DHT22;11784;49.818;8.632;2022-09-09T14:07:01;21.70;73.60
23231;DHT22;11784;49.818;8.632;2022-09-09T14:09:27;21.70;72.70
23231;DHT22;11784;49.818;8.632;2022-09-09T14:11:53;21.80;73.50
23231;DHT22;11784;49.818;8.632;2022-09-09T14:14:20;22.00;73.30
23231;DHT22;11784;49.818;8.632;2022-09-09T14:16:46;22.10;72.60
23231;DHT22;11784;49.818;8.632;2022-09-09T14:19:12;22.40;72.60
23231;DHT22;11784;49.818;8.632;2022-09-09T14:21:37;22.60;70.10
23231;DHT22;11784;49.818;8.632;2022-09-09T14:24:04;22.90;68.60
23231;DHT22;11784;49.818;8.632;2022-09-09T14:26:30;23.10;68.30
23231;DHT22;11784;49.818;8.632;2022-09-09T14:28:55;23.40;68.40
23231;DHT22;11784;49.818;8.632;2022-09-09T14:31:21;23.80;66.50
23231;DHT22;11784;49.818;8.632;2022-09-09T14:33:47;24.20;65.20
23231;DHT22;11784;49.818;8.632;2022-09-09T14:36:13;24.50;63.50
23231;DHT22;11784;49.818;8.632;2022-09-09T14:38:38;24.90;60.60
23231;DHT22;11784;49.818;8.632;2022-09-09T14:41:12;25.00;58.40
23231;DHT22;11784;49.818;8.632;2022-09-09T14:43:40;25.10;57.10
23231;DHT22;11784;49.818;8.632;2022-09-09T14:46:11;25.20;57.80
23231;DHT22;11784;49.818;8.632;2022-09-09T14:48:37;25.20;57.10
23231;DHT22;11784;49.818;8.632;2022-09-09T14:51:11;25.10;57.10
23231;DHT22;11784;49.818;8.632;2022-09-09T14:53:38;25.00;57.60
23231;DHT22;11784;49.818;8.632;2022-09-09T14:56:09;24.90;58.50
23231;DHT22;11784;49.818;8.632;2022-09-09T14:58:35;24.70;59.10
23231;DHT22;11784;49.818;8.632;2022-09-09T15:01:19;24.60;58.30
23231;DHT22;11784;49.818;8.632;2022-09-09T15:04:00;24.40;58.60
23231;DHT22;11784;49.818;8.632;2022-09-09T15:06:30;24.20;58.80
23231;DHT22;11784;49.818;8.632;2022-09-09T15:08:58;24.10;59.80
23231;DHT22;11784;49.818;8.632;2022-09-09T15:11:27;23.90;60.40
23231;DHT22;11784;49.818;8.632;2022-09-09T15:13:53;23.80;60.60
23231;DHT22;11784;49.818;8.632;2022-09-09T15:16:21;23.60;62.50
23231;DHT22;11784;49.818;8.632;2022-09-09T15:18:51;23.50;62.70
23231;DHT22;11784;49.818;8.632;2022-09-09T15:21:19;23.30;62.30
23231;DHT22;11784;49.818;8.632;2022-09-09T15:23:45;23.20;63.20
23231;DHT22;11784;49.818;8.632;2022-09-09T15:26:12;23.10;64.20
23231;DHT22;11784;49.818;8.632;2022-09-09T15:28:41;23.00;64.50
23231;DHT22;11784;49.818;8.632;2022-09-09T15:31:25;22.90;64.40
23231;DHT22;11784;49.818;8.632;2022-09-09T15:33:56;22.80;65.30
23231;DHT22;11784;49.818;8.632;2022-09-09T15:36:30;22.80;67.10
23231;DHT22;11784;49.818;8.632;2022-09-09T15:38:58;22.70;66.50
23231;DHT22;11784;49.818;8.632;2022-09-09T15:41:23;22.70;68.40
23231;DHT22;11784;49.818;8.632;2022-09-09T15:43:51;22.80;68.30
23231;DHT22;11784;49.818;8.632;2022-09-09T15:48:45;23.20;67.00
23231;DHT22;11784;49.818;8.632;2022-09-09T15:51:11;23.80;66.10
23231;DHT22;11784;49.818;8.632;2022-09-09T15:53:37;24.70;64.10
23231;DHT22;11784;49.818;8.632;2022-09-09T15:56:05;25.60;60.40
23231;DHT22;11784;49.818;8.632;2022-09-09T15:58:32;25.90;58.30
23231;DHT22;11784;49.818;8.632;2022-09-09T16:01:08;26.00;56.40
23231;DHT22;11784;49.818;8.632;2022-09-09T16:03:41;25.80;56.00
23231;DHT22;11784;49.818;8.632;2022-09-09T16:06:08;25.60;56.40
23231;DHT22;11784;49.818;8.632;2022-09-09T16:08:35;25.20;56.80
23231;DHT22;11784;49.818;8.632;2022-09-09T16:11:15;25.00;57.30
23231;DHT22;11784;49.818;8.632;2022-09-09T16:13:43;25.00;57.90
23231;DHT22;11784;49.818;8.632;2022-09-09T16:16:10;25.40;57.00
23231;DHT22;11784;49.818;8.632;2022-09-09T16:18:42;26.10;54.60
23231;DHT22;11784;49.818;8.632;2022-09-09T16:21:14;26.80;53.20
23231;DHT22;11784;49.818;8.632;2022-09-09T16:23:40;27.10;51.50
23231;DHT22;11784;49.818;8.632;2022-09-09T16:26:06;27.20;51.00
23231;DHT22;11784;49.818;8.632;2022-09-09T16:28:31;26.90;51.50
23231;DHT22;11784;49.818;8.632;2022-09-09T16:30:57;26.70;51.50
23231;DHT22;11784;49.818;8.632;2022-09-09T16:33:26;26.20;52.30
23231;DHT22;11784;49.818;8.632;2022-09-09T16:35:52;25.80;53.30
23231;DHT22;11784;49.818;8.632;2022-09-09T16:38:17;25.50;54.10
23231;DHT22;11784;49.818;8.632;2022-09-09T16:40:44;25.00;54.50
23231;DHT22;11784;49.818;8.632;2022-09-09T16:43:10;24.70;55.50
23231;DHT22;11784;49.818;8.632;2022-09-09T16:45:44;24.40;56.30
23231;DHT22;11784;49.818;8.632;2022-09-09T16:48:11;24.10;57.00
23231;DHT22;11784;49.818;8.632;2022-09-09T16:50:37;23.90;58.00
23231;DHT22;11784;49.818;8.632;2022-09-09T16:53:03;23.60;58.10
23231;DHT22;11784;49.818;8.632;2022-09-09T16:55:32;23.40;58.90
23231;DHT22;11784;49.818;8.632;2022-09-09T16:57:57;23.20;59.20
23231;DHT22;11784;49.818;8.632;2022-09-09T17:00:23;23.00;60.00
23231;DHT22;11784;49.818;8.632;2022-09-09T17:02:49;22.80;60.90
23231;DHT22;11784;49.818;8.632;2022-09-09T17:05:15;22.60;61.60
23231;DHT22;11784;49.818;8.632;2022-09-09T17:07:40;22.40;62.90
23231;DHT22;11784;49.818;8.632;2022-09-09T17:10:07;22.30;63.90
23231;DHT22;11784;49.818;8.632;2022-09-09T17:12:32;22.20;64.40
23231;DHT22;11784;49.818;8.632;2022-09-09T17:14:58;22.20;65.20
23231;DHT22;11784;49.818;8.632;2022-09-09T17:17:25;22.00;65.20
23231;DHT22;11784;49.818;8.632;2022-09-09T17:19:52;22.00;66.10
23231;DHT22;11784;49.818;8.632;2022-09-09T17:22:18;21.80;66.70
23231;DHT22;11784;49.818;8.632;2022-09-09T17:24:45;21.80;67.60
23231;DHT22;11784;49.818;8.632;2022-09-09T17:27:11;21.70;67.80
23231;DHT22;11784;49.818;8.632;2022-09-09T17:29:38;21.70;68.30
23231;DHT22;11784;49.818;8.632;2022-09-09T17:32:04;21.70;68.30
23231;DHT22;11784;49.818;8.632;2022-09-09T17:34:30;21.70;69.10
23231;DHT22;11784;49.818;8.632;2022-09-09T17:36:56;21.70;70.50
23231;DHT22;11784;49.818;8.632;2022-09-09T17:39:22;21.60;70.90
23231;DHT22;11784;49.818;8.632;2022-09-09T17:41:48;21.60;71.50